createdAt,value
2018-12-27T00:00:25.835Z,4.70
2018-12-27T00:02:55.248Z,4.67
2018-12-27T00:05:23.789Z,4.66
2018-12-27T00:07:53.216Z,4.62
2018-12-27T00:10:22.535Z,4.58
2018-12-27T00:12:51.157Z,4.55
2018-12-27T00:15:19.678Z,4.58
2018-12-27T00:17:49.006Z,4.60
2018-12-27T00:20:18.362Z,4.62
2018-12-27T00:22:47.702Z,4.57
2018-12-27T00:25:17.039Z,4.50
2018-12-27T00:27:45.574Z,4.52
2018-12-27T00:30:14.900Z,4.52
2018-12-27T00:32:44.244Z,4.45
2018-12-27T00:35:12.784Z,4.48
2018-12-27T00:37:42.109Z,4.43
2018-12-27T00:40:11.436Z,4.35
2018-12-27T00:42:39.949Z,4.35
2018-12-27T00:45:09.278Z,4.43
2018-12-27T00:47:38.599Z,4.42
2018-12-27T00:50:07.951Z,4.33
2018-12-27T00:52:37.293Z,4.25
2018-12-27T00:55:06.674Z,4.28
2018-12-27T00:57:36.003Z,4.27
2018-12-27T01:00:04.440Z,4.39
2018-12-27T01:02:32.982Z,4.32
2018-12-27T01:05:02.314Z,4.33
2018-12-27T01:07:31.767Z,4.18
2018-12-27T01:10:01.084Z,4.15
2018-12-27T01:12:30.453Z,4.24
2018-12-27T01:14:59.815Z,4.30
2018-12-27T01:17:29.138Z,4.35
2018-12-27T01:19:58.484Z,4.30
2018-12-27T01:22:27.814Z,4.26
2018-12-27T01:24:57.182Z,4.26
2018-12-27T01:27:25.704Z,4.41
2018-12-27T01:29:54.230Z,4.31
2018-12-27T01:32:23.563Z,4.29
2018-12-27T01:34:52.886Z,4.27
2018-12-27T01:37:34.411Z,4.34
2018-12-27T01:40:03.748Z,4.28
2018-12-27T01:42:33.073Z,4.21
2018-12-27T01:45:02.408Z,4.28
2018-12-27T01:47:31.746Z,4.27
2018-12-27T01:50:01.078Z,4.35
2018-12-27T01:52:30.389Z,4.17
2018-12-27T01:54:59.712Z,4.19
2018-12-27T01:57:28.327Z,4.13
2018-12-27T01:59:56.868Z,4.20
2018-12-27T02:02:26.202Z,4.17
2018-12-27T02:04:55.545Z,4.13
2018-12-27T02:07:24.867Z,4.03
2018-12-27T02:09:54.191Z,4.15
2018-12-27T02:12:23.518Z,4.14
2018-12-27T02:14:52.841Z,4.19
2018-12-27T02:17:22.181Z,4.03
2018-12-27T02:19:51.493Z,4.04
2018-12-27T02:22:20.824Z,4.04
2018-12-27T02:24:49.350Z,4.08
2018-12-27T02:27:17.760Z,4.11
2018-12-27T02:29:47.084Z,4.08
2018-12-27T02:32:16.446Z,4.05
2018-12-27T02:37:39.016Z,4.02
2018-12-27T02:40:08.337Z,4.06
2018-12-27T02:42:37.660Z,4.04
2018-12-27T02:45:06.990Z,4.01
2018-12-27T02:47:36.318Z,3.93
2018-12-27T02:50:05.655Z,4.03
2018-12-27T02:52:34.970Z,3.93
2018-12-27T02:55:03.491Z,4.12
2018-12-27T02:57:32.178Z,3.97
2018-12-27T03:00:00.609Z,4.00
2018-12-27T03:02:29.938Z,3.98
2018-12-27T03:04:59.262Z,3.96
2018-12-27T03:07:28.588Z,3.82
2018-12-27T03:09:57.998Z,3.82
2018-12-27T03:12:27.322Z,3.71
2018-12-27T03:14:56.643Z,3.69
2018-12-27T03:17:25.963Z,3.51
2018-12-27T03:19:55.278Z,3.59
2018-12-27T03:22:23.806Z,3.57
2018-12-27T03:24:53.117Z,3.71
2018-12-27T03:27:21.548Z,3.73
2018-12-27T03:29:50.891Z,3.72
2018-12-27T03:32:20.226Z,3.84
2018-12-27T03:34:49.554Z,3.81
2018-12-27T03:37:18.875Z,3.76
2018-12-27T03:39:48.216Z,3.85
2018-12-27T03:42:17.535Z,3.80
2018-12-27T03:44:46.876Z,3.77
2018-12-27T03:47:15.380Z,3.80
2018-12-27T03:49:43.784Z,3.75
2018-12-27T03:52:13.102Z,3.87
2018-12-27T03:54:42.438Z,3.85
2018-12-27T03:57:11.745Z,3.77
2018-12-27T03:59:41.067Z,3.77
2018-12-27T04:02:10.385Z,3.89
2018-12-27T04:04:39.718Z,3.93
2018-12-27T04:07:09.066Z,3.84
2018-12-27T04:09:38.356Z,3.91
2018-12-27T04:12:06.893Z,4.00
2018-12-27T04:14:35.412Z,3.96
2018-12-27T04:17:04.747Z,3.93
2018-12-27T04:19:34.048Z,4.01
2018-12-27T04:22:03.377Z,4.01
2018-12-27T04:24:32.894Z,4.01
2018-12-27T04:27:02.227Z,4.01
2018-12-27T04:29:31.539Z,4.04
2018-12-27T04:32:00.271Z,3.97
2018-12-27T04:37:30.757Z,4.03
2018-12-27T04:39:59.267Z,3.92
2018-12-27T04:42:39.839Z,3.97
2018-12-27T04:45:08.363Z,3.86
2018-12-27T04:50:30.596Z,3.75
2018-12-27T04:52:59.105Z,3.74
2018-12-27T04:55:27.630Z,3.70
2018-12-27T04:57:56.953Z,3.46
2018-12-27T05:00:26.288Z,3.45
2018-12-27T05:02:55.612Z,3.39
2018-12-27T05:05:24.017Z,3.34
2018-12-27T05:07:53.357Z,3.33
2018-12-27T05:10:21.877Z,3.35
2018-12-27T05:12:51.204Z,3.46
2018-12-27T05:15:19.727Z,3.39
2018-12-27T05:17:49.041Z,3.43
2018-12-27T05:20:18.372Z,3.40
2018-12-27T05:22:47.721Z,3.47
2018-12-27T05:25:17.035Z,3.54
2018-12-27T05:27:46.354Z,3.53
2018-12-27T05:30:15.662Z,3.59
2018-12-27T05:32:45.049Z,3.66
2018-12-27T05:35:13.585Z,3.69
2018-12-27T05:37:42.091Z,3.64
2018-12-27T05:40:11.438Z,3.67
2018-12-27T05:42:39.945Z,3.63
2018-12-27T05:45:09.259Z,3.58
2018-12-27T05:47:38.596Z,3.68
2018-12-27T05:50:07.937Z,3.65
2018-12-27T05:52:37.275Z,3.72
2018-12-27T05:55:05.689Z,3.75
2018-12-27T05:57:34.200Z,3.72
2018-12-27T06:00:04.054Z,3.69
2018-12-27T06:02:32.473Z,3.67
2018-12-27T06:05:01.837Z,3.68
2018-12-27T06:07:31.132Z,3.66
2018-12-27T06:10:00.457Z,3.73
2018-12-27T06:12:29.004Z,3.70
2018-12-27T06:14:58.347Z,3.76
2018-12-27T06:17:27.670Z,3.74
2018-12-27T06:19:57.029Z,3.67
2018-12-27T06:22:26.350Z,3.54
2018-12-27T06:24:56.198Z,3.44
2018-12-27T06:27:24.681Z,3.49
2018-12-27T06:29:54.019Z,3.50
2018-12-27T06:32:23.358Z,3.43
2018-12-27T06:34:52.752Z,3.43
2018-12-27T06:37:22.087Z,3.36
2018-12-27T06:39:51.401Z,3.33
2018-12-27T06:42:20.757Z,3.38
2018-12-27T06:44:49.273Z,3.46
2018-12-27T06:47:17.682Z,3.51
2018-12-27T06:49:46.209Z,3.63
2018-12-27T06:52:15.645Z,3.62
2018-12-27T06:54:45.007Z,3.69
2018-12-27T06:57:14.324Z,3.72
2018-12-27T06:59:43.650Z,3.74
2018-12-27T07:02:12.976Z,3.80
2018-12-27T07:04:48.719Z,3.86
2018-12-27T07:07:31.631Z,3.96
2018-12-27T07:10:00.961Z,4.09
2018-12-27T07:12:30.319Z,4.08
2018-12-27T07:14:58.867Z,4.19
2018-12-27T07:17:27.382Z,4.28
2018-12-27T07:19:56.746Z,4.33
2018-12-27T07:22:26.079Z,4.37
2018-12-27T07:24:55.409Z,4.46
2018-12-27T07:27:24.781Z,4.51
2018-12-27T07:29:54.479Z,4.57
2018-12-27T07:32:23.012Z,4.65
2018-12-27T07:34:56.422Z,4.74
2018-12-27T07:37:40.687Z,4.74
2018-12-27T07:40:09.225Z,4.84
2018-12-27T07:42:38.583Z,4.90
2018-12-27T07:45:07.920Z,4.95
2018-12-27T07:47:37.263Z,5.03
2018-12-27T07:50:06.698Z,5.09
2018-12-27T07:52:36.071Z,5.06
2018-12-27T07:55:05.422Z,5.09
2018-12-27T07:57:35.049Z,5.21
2018-12-27T08:00:15.549Z,5.24
2018-12-27T08:02:44.068Z,5.30
2018-12-27T08:05:13.634Z,5.41
2018-12-27T08:07:42.959Z,5.50
2018-12-27T08:10:11.382Z,5.59
2018-12-27T08:12:40.713Z,5.68
2018-12-27T08:15:10.041Z,5.74
2018-12-27T08:17:39.379Z,5.78
2018-12-27T08:20:08.698Z,5.94
2018-12-27T08:22:38.039Z,5.98
2018-12-27T08:25:33.554Z,6.04
2018-12-27T08:28:02.091Z,6.08
2018-12-27T08:30:31.437Z,6.13
2018-12-27T08:33:00.783Z,6.11
2018-12-27T08:35:30.193Z,6.24
2018-12-27T08:37:59.248Z,6.17
2018-12-27T08:40:27.751Z,6.45
2018-12-27T08:42:57.123Z,6.37
2018-12-27T08:45:25.649Z,6.33
2018-12-27T08:47:54.205Z,6.50
2018-12-27T08:50:23.531Z,6.48
2018-12-27T08:53:05.202Z,6.53
2018-12-27T08:55:33.877Z,6.57
2018-12-27T08:58:03.242Z,6.43
2018-12-27T09:00:32.561Z,6.49
2018-12-27T09:03:01.144Z,6.45
2018-12-27T09:05:30.540Z,6.56
2018-12-27T09:07:59.220Z,6.61
2018-12-27T09:10:28.802Z,6.65
2018-12-27T09:12:58.141Z,6.59
2018-12-27T09:15:27.534Z,6.59
2018-12-27T09:17:56.049Z,6.56
2018-12-27T09:20:25.371Z,6.73
2018-12-27T09:22:54.694Z,6.88
2018-12-27T09:25:26.834Z,6.81
2018-12-27T09:27:55.345Z,6.82
2018-12-27T09:30:24.688Z,6.77
2018-12-27T09:32:53.324Z,6.79
2018-12-27T09:35:26.253Z,6.83
2018-12-27T09:38:11.866Z,6.89
2018-12-27T09:40:41.266Z,6.93
2018-12-27T09:43:09.695Z,6.95
2018-12-27T09:45:38.237Z,6.96
2018-12-27T09:48:07.608Z,6.87
2018-12-27T09:53:19.351Z,7.01
2018-12-27T09:55:47.860Z,7.13
2018-12-27T09:58:17.209Z,7.22
2018-12-27T10:00:46.550Z,7.13
2018-12-27T10:03:15.885Z,7.11
2018-12-27T10:05:45.228Z,7.11
2018-12-27T10:08:13.749Z,7.07
2018-12-27T10:10:43.177Z,7.20
2018-12-27T10:13:11.798Z,7.32
2018-12-27T10:15:40.334Z,7.41
2018-12-27T10:18:09.703Z,7.40
2018-12-27T10:20:39.055Z,7.43
2018-12-27T10:23:08.415Z,7.44
2018-12-27T10:25:37.757Z,7.56
2018-12-27T10:28:07.098Z,7.46
2018-12-27T10:30:36.620Z,7.46
2018-12-27T10:33:06.147Z,7.52
2018-12-27T10:35:41.071Z,7.48
2018-12-27T10:38:05.930Z,7.57
2018-12-27T10:40:35.280Z,7.48
2018-12-27T10:43:03.958Z,7.55
2018-12-27T10:45:35.033Z,7.45
2018-12-27T10:48:04.741Z,7.61
2018-12-27T10:53:16.534Z,7.66
2018-12-27T10:55:45.269Z,7.66
2018-12-27T10:58:13.817Z,7.55
2018-12-27T11:00:43.330Z,7.64
2018-12-27T11:03:12.720Z,7.75
2018-12-27T11:05:48.430Z,7.75
2018-12-27T11:08:31.309Z,7.73
2018-12-27T11:13:43.506Z,7.90
2018-12-27T11:16:12.843Z,7.60
2018-12-27T11:21:45.064Z,7.68
2018-12-27T11:24:14.432Z,7.68
2018-12-27T11:26:42.882Z,7.77
2018-12-27T11:29:12.283Z,7.79
2018-12-27T11:31:40.726Z,7.82
2018-12-27T11:34:10.079Z,7.74
2018-12-27T11:36:38.598Z,7.69
2018-12-27T11:39:07.179Z,7.69
2018-12-27T11:41:36.517Z,7.64
2018-12-27T11:44:05.835Z,7.74
2018-12-27T11:46:35.156Z,7.71
2018-12-27T11:49:04.500Z,7.81
2018-12-27T11:51:33.537Z,7.77
2018-12-27T11:54:02.914Z,7.83
2018-12-27T11:56:32.230Z,7.85
2018-12-27T11:59:00.820Z,7.87
2018-12-27T12:01:29.407Z,7.83
2018-12-27T12:03:58.754Z,7.89
2018-12-27T12:06:28.095Z,7.93
2018-12-27T12:08:57.423Z,7.90
2018-12-27T12:11:26.808Z,7.86
2018-12-27T12:13:56.152Z,7.87
2018-12-27T12:16:25.466Z,7.93
2018-12-27T12:18:54.821Z,7.90
2018-12-27T12:21:23.352Z,7.93
2018-12-27T12:23:51.758Z,7.89
2018-12-27T12:26:20.294Z,7.79
2018-12-27T12:28:48.836Z,7.90
2018-12-27T12:31:18.196Z,7.90
2018-12-27T12:33:47.815Z,7.89
2018-12-27T12:36:17.172Z,7.93
2018-12-27T12:38:46.534Z,7.87
2018-12-27T12:41:15.156Z,7.80
2018-12-27T12:43:44.554Z,7.81
2018-12-27T12:46:13.239Z,7.85
2018-12-27T12:48:42.586Z,7.85
2018-12-27T12:51:23.263Z,7.82
2018-12-27T12:56:40.030Z,7.85
2018-12-27T12:59:11.202Z,7.88
2018-12-27T13:01:39.799Z,7.87
2018-12-27T13:04:09.272Z,7.81
2018-12-27T13:06:38.670Z,7.71
2018-12-27T13:09:07.390Z,7.70
2018-12-27T13:11:36.731Z,7.67
2018-12-27T13:14:07.949Z,7.67
2018-12-27T13:16:36.497Z,7.64
2018-12-27T13:19:05.835Z,7.68
2018-12-27T13:21:34.416Z,7.63
2018-12-27T13:24:02.925Z,7.63
2018-12-27T13:29:27.934Z,7.49
2018-12-27T13:31:59.061Z,7.46
2018-12-27T13:34:29.443Z,7.51
2018-12-27T13:36:58.830Z,7.46
2018-12-27T13:39:28.505Z,7.49
2018-12-27T13:41:57.753Z,7.43
2018-12-27T13:44:26.364Z,7.41
2018-12-27T13:46:54.920Z,7.45
2018-12-27T13:49:24.017Z,7.47
2018-12-27T13:51:53.377Z,7.44
2018-12-27T13:54:22.723Z,7.37
2018-12-27T13:56:53.613Z,7.39
2018-12-27T13:59:23.056Z,7.39
2018-12-27T14:01:52.407Z,7.37
2018-12-27T14:04:20.972Z,7.42
2018-12-27T14:06:49.690Z,7.46
2018-12-27T14:09:18.240Z,7.45
2018-12-27T14:11:47.604Z,7.41
2018-12-27T14:14:16.676Z,7.44
2018-12-27T14:16:46.109Z,7.44
2018-12-27T14:19:15.507Z,7.46
2018-12-27T14:22:04.327Z,7.42
2018-12-27T14:24:34.565Z,7.39
2018-12-27T14:27:03.927Z,7.37
2018-12-27T14:29:33.358Z,7.38
2018-12-27T14:32:02.327Z,7.33
2018-12-27T14:34:30.976Z,7.37
2018-12-27T14:36:59.524Z,7.35
2018-12-27T14:39:28.857Z,7.31
2018-12-27T14:41:58.210Z,7.26
2018-12-27T14:44:27.569Z,7.26
2018-12-27T14:46:56.934Z,7.29
2018-12-27T14:49:26.390Z,7.27
2018-12-27T14:51:55.751Z,7.19
2018-12-27T14:54:25.121Z,7.15
2018-12-27T14:56:54.451Z,7.08
2018-12-27T14:59:23.795Z,7.02
2018-12-27T15:01:52.367Z,7.07
2018-12-27T15:04:21.708Z,7.01
2018-12-27T15:06:50.258Z,7.07
2018-12-27T15:09:19.722Z,6.96
2018-12-27T15:11:49.069Z,6.88
2018-12-27T15:14:18.417Z,6.84
2018-12-27T15:16:47.757Z,6.76
2018-12-27T15:19:17.097Z,6.81
2018-12-27T15:21:46.450Z,6.74
2018-12-27T15:24:15.811Z,6.67
2018-12-27T15:26:44.459Z,6.72
2018-12-27T15:29:13.295Z,6.74
2018-12-27T15:31:41.888Z,6.65
2018-12-27T15:34:10.507Z,6.59
2018-12-27T15:36:39.153Z,6.52
2018-12-27T15:39:07.798Z,6.41
2018-12-27T15:41:36.455Z,6.36
2018-12-27T15:44:05.018Z,6.39
2018-12-27T15:46:33.676Z,6.33
2018-12-27T15:49:02.336Z,6.29
2018-12-27T15:51:31.647Z,6.17
2018-12-27T15:54:00.999Z,6.19
2018-12-27T15:56:29.758Z,6.15
2018-12-27T15:58:58.393Z,6.12
2018-12-27T16:01:27.767Z,6.02
2018-12-27T16:03:57.130Z,6.07
2018-12-27T16:06:25.782Z,6.04
2018-12-27T16:08:55.123Z,6.02
2018-12-27T16:11:24.467Z,5.97
2018-12-27T16:13:53.820Z,5.94
2018-12-27T16:16:23.154Z,5.83
2018-12-27T16:18:52.491Z,5.82
2018-12-27T16:21:21.831Z,5.88
2018-12-27T16:23:51.160Z,5.87
2018-12-27T16:26:20.520Z,5.84
2018-12-27T16:28:49.859Z,5.77
2018-12-27T16:31:18.514Z,5.70
2018-12-27T16:33:47.832Z,5.61
2018-12-27T16:36:17.188Z,5.67
2018-12-27T16:38:46.531Z,5.66
2018-12-27T16:41:15.859Z,5.51
2018-12-27T16:43:45.258Z,5.48
2018-12-27T16:46:14.591Z,5.45
2018-12-27T16:48:43.939Z,5.41
2018-12-27T16:51:13.278Z,5.34
2018-12-27T16:53:42.612Z,5.36
2018-12-27T16:56:11.950Z,5.39
2018-12-27T16:58:41.295Z,5.14
2018-12-27T17:01:10.648Z,5.15
2018-12-27T17:03:39.998Z,5.22
2018-12-27T17:06:08.521Z,5.13
2018-12-27T17:08:37.863Z,5.24
2018-12-27T17:11:07.202Z,5.13
2018-12-27T17:13:36.536Z,5.15
2018-12-27T17:16:05.864Z,5.19
2018-12-27T17:18:35.191Z,5.22
2018-12-27T17:21:04.517Z,5.30
2018-12-27T17:23:33.057Z,5.15
2018-12-27T17:26:02.388Z,5.11
2018-12-27T17:28:31.730Z,5.16
2018-12-27T17:31:00.413Z,5.19
2018-12-27T17:33:29.733Z,5.15
2018-12-27T17:35:59.077Z,5.03
2018-12-27T17:38:28.443Z,5.12
2018-12-27T17:40:57.776Z,5.09
2018-12-27T17:43:27.118Z,5.09
2018-12-27T17:45:56.442Z,5.10
2018-12-27T17:48:25.795Z,5.10
2018-12-27T17:50:55.105Z,5.03
2018-12-27T17:53:23.848Z,5.03
2018-12-27T17:55:52.367Z,5.06
2018-12-27T17:58:21.722Z,5.06
2018-12-27T18:00:51.065Z,5.06
2018-12-27T18:03:20.413Z,5.05
2018-12-27T18:05:49.795Z,5.08
2018-12-27T18:08:19.129Z,4.97
2018-12-27T18:10:48.461Z,5.14
2018-12-27T18:13:17.795Z,5.06
2018-12-27T18:15:46.324Z,5.09
2018-12-27T18:18:15.690Z,5.12
2018-12-27T18:20:45.034Z,4.87
2018-12-27T18:23:14.414Z,5.01
2018-12-27T18:25:43.758Z,5.11
2018-12-27T18:28:13.086Z,5.04
2018-12-27T18:30:42.476Z,4.80
2018-12-27T18:33:11.802Z,5.00
2018-12-27T18:35:41.139Z,4.99
2018-12-27T18:38:10.477Z,4.91
2018-12-27T18:40:39.820Z,4.95
2018-12-27T18:43:09.160Z,4.89
2018-12-27T18:45:37.784Z,4.95
2018-12-27T18:48:06.518Z,4.84
2018-12-27T18:50:35.857Z,4.84
2018-12-27T18:53:05.180Z,4.73
2018-12-27T18:55:34.534Z,4.81
2018-12-27T18:58:03.883Z,4.90
2018-12-27T19:00:33.239Z,4.75
2018-12-27T19:03:02.575Z,4.75
2018-12-27T19:05:31.901Z,4.67
2018-12-27T19:08:01.239Z,4.62
2018-12-27T19:10:29.761Z,4.70
2018-12-27T19:13:17.764Z,4.70
2018-12-27T19:15:52.919Z,4.72
2018-12-27T19:18:42.446Z,4.67
2018-12-27T19:21:37.401Z,4.60
2018-12-27T19:24:05.925Z,4.55
2018-12-27T19:26:35.248Z,4.56
2018-12-27T19:29:04.582Z,4.67
2018-12-27T19:31:33.898Z,4.69
2018-12-27T19:34:03.242Z,4.64
2018-12-27T19:36:32.582Z,4.50
2018-12-27T19:39:02.438Z,4.47
2018-12-27T19:41:30.973Z,4.44
2018-12-27T19:43:59.511Z,4.24
2018-12-27T19:46:28.864Z,4.09
2018-12-27T19:48:58.199Z,4.29
2018-12-27T19:51:27.550Z,4.42
2018-12-27T19:53:56.877Z,4.42
2018-12-27T19:56:26.198Z,4.47
2018-12-27T19:58:55.530Z,4.39
2018-12-27T20:01:24.865Z,4.37
2018-12-27T20:03:54.208Z,3.87
2018-12-27T20:06:22.722Z,3.74
2018-12-27T20:08:52.064Z,3.92
2018-12-27T20:11:21.387Z,3.97
2018-12-27T20:13:50.714Z,3.93
2018-12-27T20:16:20.044Z,3.76
2018-12-27T20:18:49.381Z,3.72
2018-12-27T20:21:18.703Z,3.74
2018-12-27T20:23:48.025Z,3.69
2018-12-27T20:26:17.343Z,3.73
2018-12-27T20:28:46.861Z,3.67
2018-12-27T20:31:16.190Z,3.69
2018-12-27T20:33:44.712Z,3.66
2018-12-27T20:36:14.046Z,3.64
2018-12-27T20:38:42.660Z,3.82
2018-12-27T20:41:12.111Z,3.93
2018-12-27T20:43:41.439Z,4.00
2018-12-27T20:46:10.772Z,3.76
2018-12-27T20:48:40.109Z,3.74
2018-12-27T20:51:09.439Z,4.00
2018-12-27T20:53:38.787Z,3.83
2018-12-27T20:56:08.096Z,3.90
2018-12-27T20:58:37.408Z,3.86
2018-12-27T21:01:06.055Z,3.79
2018-12-27T21:03:35.381Z,3.53
2018-12-27T21:06:03.909Z,3.50
2018-12-27T21:08:33.237Z,3.38
2018-12-27T21:11:02.666Z,3.56
2018-12-27T21:13:32.001Z,3.48
2018-12-27T21:16:01.334Z,3.47
2018-12-27T21:18:30.780Z,3.49
2018-12-27T21:21:00.107Z,3.30
2018-12-27T21:23:29.441Z,3.13
2018-12-27T21:25:57.959Z,2.94
2018-12-27T21:28:26.592Z,3.07
2018-12-27T21:30:55.923Z,3.15
2018-12-27T21:33:25.264Z,3.05
2018-12-27T21:35:54.594Z,2.97
2018-12-27T21:38:23.940Z,2.77
2018-12-27T21:40:53.275Z,3.03
2018-12-27T21:43:22.614Z,3.12
2018-12-27T21:45:51.228Z,2.82
2018-12-27T21:48:19.846Z,2.62
2018-12-27T21:50:48.461Z,2.57
2018-12-27T21:53:17.794Z,2.59
2018-12-27T21:55:47.123Z,2.56
2018-12-27T21:58:16.453Z,2.41
2018-12-27T22:00:45.772Z,2.28
2018-12-27T22:03:15.119Z,2.23
2018-12-27T22:05:44.449Z,2.48
2018-12-27T22:08:13.783Z,2.70
2018-12-27T22:10:43.156Z,2.54
2018-12-27T22:13:12.678Z,2.32
2018-12-27T22:15:41.202Z,2.58
2018-12-27T22:18:10.530Z,2.16
2018-12-27T22:20:39.884Z,2.18
2018-12-27T22:23:09.214Z,2.19
2018-12-27T22:25:38.538Z,2.36
2018-12-27T22:28:07.054Z,2.07
2018-12-27T22:30:36.373Z,2.08
2018-12-27T22:33:05.695Z,2.26
2018-12-27T22:35:35.022Z,1.91
2018-12-27T22:38:03.644Z,2.03
2018-12-27T22:40:32.158Z,1.74
2018-12-27T22:43:01.495Z,1.65
2018-12-27T22:45:30.823Z,1.85
2018-12-27T22:48:00.154Z,2.00
2018-12-27T22:50:29.475Z,2.24
2018-12-27T22:52:58.800Z,2.26
2018-12-27T22:55:28.139Z,2.06
2018-12-27T22:57:57.481Z,2.04
2018-12-27T23:00:46.517Z,1.88
2018-12-27T23:03:18.759Z,2.26
2018-12-27T23:05:48.094Z,1.78
2018-12-27T23:08:16.635Z,1.64
2018-12-27T23:10:45.962Z,1.65
2018-12-27T23:13:14.390Z,1.86
2018-12-27T23:15:43.723Z,1.61
2018-12-27T23:18:13.054Z,1.85
2018-12-27T23:20:41.595Z,1.64
2018-12-27T23:23:10.969Z,1.54
2018-12-27T23:25:40.299Z,1.51
2018-12-27T23:28:09.614Z,1.42
2018-12-27T23:30:38.206Z,1.55
2018-12-27T23:33:06.618Z,1.53
2018-12-27T23:35:35.952Z,1.74
2018-12-27T23:38:05.262Z,1.64
2018-12-27T23:40:34.586Z,1.91
2018-12-27T23:43:03.888Z,1.41
2018-12-27T23:45:33.208Z,1.20
2018-12-27T23:48:01.770Z,1.23
2018-12-27T23:50:31.140Z,1.51
2018-12-27T23:53:00.458Z,1.46
2018-12-27T23:55:28.896Z,1.35
2018-12-27T23:57:58.213Z,1.10
